Terminal Aerodrome Forecast
Issued by NWS

Current Version | Previous Version | Graphics & Text | Print | Product List | Glossary On
Versions: 1 2 3 4 5 6 7 8 9 10 11 12 13 14 15 16 17 18
000
FTUS41 KILN 190500
TAFLUK
TAF
KLUK 190520Z 1906/2006 36003KT P6SM SCT250
     FM191300 03009KT P6SM FEW250
     FM191700 05010G18KT P6SM FEW035
     FM200000 00000KT P6SM SKC=

USA.gov is the U.S. government's official web portal to all federal, state and local government web resources and services.